Time;durP1;ratioP1;P1;durP2;ratioP2;P2;SDS_P1;SDS_P2;PMS_P1;PMS_P2;Temp;Humidity;BMP_temperature;BMP_pressure;BME280_temperature;BME280_humidity;BME280_pressure;Samples;Min_cycle;Max_cycle;Signal;HPM_P1;HPM_P2
2022/12/01 00:00:58;;;;;;;17.80;8.77;;;6.80;87.20;;;;;;4996540;28;20045;-61
2022/12/01 00:03:25;;;;;;;19.48;9.50;;;6.80;87.10;;;;;;5003066;28;20594;-61
2022/12/01 00:05:59;;;;;;;17.20;8.15;;;6.90;87.00;;;;;;5005260;28;20054;-61
2022/12/01 00:08:26;;;;;;;18.33;9.55;;;6.80;87.10;;;;;;5003144;28;20050;-60
2022/12/01 00:11:02;;;;;;;16.38;8.73;;;6.80;87.00;;;;;;5001801;28;20132;-58
2022/12/01 00:13:36;;;;;;;16.85;9.50;;;6.80;87.10;;;;;;5004795;28;20501;-59
2022/12/01 00:16:11;;;;;;;19.75;9.80;;;6.80;87.10;;;;;;5005778;28;20056;-59
2022/12/01 00:18:38;;;;;;;18.00;9.48;;;6.80;87.10;;;;;;5001272;28;20053;-60
2022/12/01 00:21:06;;;;;;;18.10;9.73;;;6.70;86.90;;;;;;5006570;28;20042;-60
2022/12/01 00:23:33;;;;;;;20.65;9.73;;;6.70;87.10;;;;;;5006729;28;20456;-61
2022/12/01 00:26:03;;;;;;;19.60;9.65;;;6.70;87.10;;;;;;4994296;28;20201;-61
2022/12/01 00:28:31;;;;;;;19.15;10.02;;;6.80;87.10;;;;;;5004672;28;20050;-60
2022/12/01 00:30:58;;;;;;;19.20;10.00;;;6.80;86.80;;;;;;5007060;28;20617;-62
2022/12/01 00:33:27;;;;;;;19.98;10.38;;;6.70;86.80;;;;;;5003102;28;20047;-61
2022/12/01 00:35:58;;;;;;;21.58;10.35;;;6.70;86.70;;;;;;4998071;28;20392;-61
2022/12/01 00:38:25;;;;;;;21.20;11.43;;;6.70;86.80;;;;;;5009882;28;20494;-63
2022/12/01 00:40:52;;;;;;;21.17;10.10;;;6.70;86.80;;;;;;4995083;28;20063;-60
2022/12/01 00:43:20;;;;;;;20.85;11.07;;;6.70;86.80;;;;;;5008225;28;20168;-60
2022/12/01 00:45:47;;;;;;;17.00;9.40;;;6.70;86.90;;;;;;5006324;28;20064;-61
2022/12/01 00:48:14;;;;;;;20.17;9.95;;;6.70;86.80;;;;;;5010008;28;20058;-61
2022/12/01 00:50:43;;;;;;;21.45;10.88;;;6.70;86.80;;;;;;5008450;28;20487;-59
2022/12/01 00:53:10;;;;;;;19.58;9.32;;;6.70;86.80;;;;;;5008063;28;20264;-60
2022/12/01 00:55:39;;;;;;;22.27;10.73;;;6.70;86.80;;;;;;5006333;28;20082;-61
2022/12/01 00:58:06;;;;;;;21.52;10.27;;;6.60;87.10;;;;;;5006024;28;20125;-60
2022/12/01 01:00:33;;;;;;;24.23;10.77;;;6.70;86.90;;;;;;5007292;28;20039;-60
2022/12/01 01:03:00;;;;;;;22.58;10.45;;;6.70;86.90;;;;;;5009099;28;20109;-60
2022/12/01 01:05:27;;;;;;;18.83;10.13;;;6.70;86.90;;;;;;5009288;28;20109;-61
2022/12/01 01:07:55;;;;;;;19.63;10.45;;;6.60;86.90;;;;;;5005551;28;20104;-60
2022/12/01 01:10:22;;;;;;;19.60;10.25;;;6.60;87.00;;;;;;5005942;28;20677;-60
2022/12/01 01:12:52;;;;;;;17.13;9.52;;;6.60;86.90;;;;;;4998698;28;20078;-61
2022/12/01 01:15:19;;;;;;;24.40;10.88;;;6.60;86.90;;;;;;4991271;28;20053;-61
2022/12/01 01:17:46;;;;;;;19.17;10.18;;;6.60;86.90;;;;;;4980440;28;20497;-60
2022/12/01 01:20:13;;;;;;;19.35;9.93;;;6.60;86.80;;;;;;4978373;28;20572;-61
2022/12/01 01:22:40;;;;;;;19.60;10.88;;;6.70;86.80;;;;;;4994867;28;20049;-61
2022/12/01 01:25:09;;;;;;;21.58;10.90;;;6.60;86.70;;;;;;4998417;28;20091;-59
2022/12/01 01:27:36;;;;;;;24.00;11.82;;;6.60;86.70;;;;;;5000652;28;20065;-60
2022/12/01 01:30:03;;;;;;;22.02;11.20;;;6.60;86.70;;;;;;5007817;28;20042;-60
2022/12/01 01:32:30;;;;;;;21.27;11.00;;;6.60;86.60;;;;;;5006266;28;20136;-59
2022/12/01 01:34:57;;;;;;;21.55;10.55;;;6.60;86.70;;;;;;5005341;28;20046;-61
2022/12/01 01:37:24;;;;;;;23.83;11.10;;;6.60;86.80;;;;;;4996607;28;20049;-60
2022/12/01 01:39:51;;;;;;;19.15;10.95;;;6.60;86.90;;;;;;5007030;28;20073;-60
2022/12/01 01:42:20;;;;;;;21.85;11.07;;;6.60;86.80;;;;;;5006100;28;20508;-59
2022/12/01 01:44:52;;;;;;;20.65;10.80;;;6.60;86.80;;;;;;5002935;28;20420;-60
2022/12/01 01:47:25;;;;;;;22.63;11.50;;;6.50;86.80;;;;;;5008144;28;20044;-60
2022/12/01 01:49:53;;;;;;;23.00;10.50;;;6.50;86.80;;;;;;5009770;28;20046;-59
2022/12/01 01:52:22;;;;;;;19.33;10.55;;;6.50;86.90;;;;;;5008253;28;20054;-61
2022/12/01 01:54:52;;;;;;;19.70;10.57;;;6.60;86.80;;;;;;5009078;28;20057;-59
2022/12/01 01:57:25;;;;;;;22.65;11.23;;;6.60;86.80;;;;;;5008385;28;20048;-59
2022/12/01 01:59:57;;;;;;;21.40;11.40;;;6.50;86.70;;;;;;5006825;28;20052;-61
2022/12/01 02:02:25;;;;;;;20.85;11.05;;;6.60;86.60;;;;;;5010587;28;20054;-59
2022/12/01 02:05:02;;;;;;;18.60;10.80;;;6.50;86.60;;;;;;5007895;28;20556;-60
2022/12/01 02:07:32;;;;;;;21.40;10.27;;;6.50;86.70;;;;;;5003236;28;20081;-61
2022/12/01 02:09:59;;;;;;;22.48;11.15;;;6.50;86.70;;;;;;5008607;28;20056;-59
2022/12/01 02:12:45;;;;;;;19.02;10.65;;;6.50;86.70;;;;;;5009937;28;20050;-62
2022/12/01 02:15:23;;;;;;;20.10;10.77;;;6.40;86.60;;;;;;5008107;28;20045;-60
2022/12/01 02:18:04;;;;;;;23.80;11.48;;;6.50;86.70;;;;;;5008895;28;20133;-59
2022/12/01 02:20:59;;;;;;;18.27;9.63;;;6.50;86.90;;;;;;5011462;28;20042;-61
2022/12/01 02:24:02;;;;;;;18.27;10.30;;;6.50;86.70;;;;;;5010950;28;20132;-60
2022/12/01 02:26:46;;;;;;;20.13;10.30;;;6.50;86.70;;;;;;4998271;28;20053;-61
2022/12/01 02:29:47;;;;;;;20.88;10.43;;;6.60;86.70;;;;;;4996493;28;20054;-61
2022/12/01 02:32:23;;;;;;;19.52;10.18;;;6.50;86.70;;;;;;5001260;28;20077;-62
2022/12/01 02:34:56;;;;;;;18.98;10.35;;;6.60;86.60;;;;;;5005193;28;20836;-61
2022/12/01 02:37:30;;;;;;;19.92;10.27;;;6.50;86.60;;;;;;5006367;28;20404;-62
2022/12/01 02:40:06;;;;;;;18.33;10.30;;;6.50;86.50;;;;;;5009236;28;20070;-62
2022/12/01 02:42:49;;;;;;;18.88;10.68;;;6.40;86.60;;;;;;5002386;28;20069;-60
2022/12/01 02:45:23;;;;;;;21.63;10.65;;;6.40;86.80;;;;;;5004024;28;20129;-62
2022/12/01 02:47:55;;;;;;;18.25;9.18;;;6.40;86.70;;;;;;5003720;28;20042;-62
2022/12/01 02:50:25;;;;;;;21.95;10.65;;;6.40;86.80;;;;;;5008353;28;20069;-62
2022/12/01 02:52:53;;;;;;;20.00;10.23;;;6.50;86.80;;;;;;5009673;28;20052;-62
2022/12/01 02:55:21;;;;;;;21.35;10.38;;;6.40;86.70;;;;;;5009798;28;20129;-59
2022/12/01 02:57:48;;;;;;;18.65;9.73;;;6.40;86.80;;;;;;4999987;28;20052;-61
2022/12/01 03:00:16;;;;;;;18.52;10.30;;;6.40;86.80;;;;;;5000854;28;20143;-59
2022/12/01 03:02:58;;;;;;;17.25;9.00;;;6.50;86.70;;;;;;5001984;28;20137;-60
2022/12/01 03:05:36;;;;;;;15.98;9.05;;;6.50;86.60;;;;;;5003520;28;20078;-60
2022/12/01 03:08:18;;;;;;;17.85;9.98;;;6.50;86.60;;;;;;5011301;28;20046;-61
2022/12/01 03:10:52;;;;;;;18.90;10.02;;;6.50;86.50;;;;;;4999570;28;20923;-65
2022/12/01 03:13:29;;;;;;;19.00;9.07;;;6.40;86.50;;;;;;5000520;28;20054;-65
2022/12/01 03:16:00;;;;;;;18.33;9.43;;;6.40;86.60;;;;;;4994817;28;20103;-67
2022/12/01 03:18:36;;;;;;;17.73;10.02;;;6.40;86.40;;;;;;5005353;28;20042;-66
2022/12/01 03:21:08;;;;;;;17.33;8.52;;;6.40;86.30;;;;;;4997039;28;20147;-66
2022/12/01 03:23:38;;;;;;;17.80;9.57;;;6.40;86.40;;;;;;5004738;28;20050;-65
2022/12/01 03:26:08;;;;;;;15.27;8.43;;;6.30;86.20;;;;;;5005381;28;20060;-65
2022/12/01 03:28:39;;;;;;;16.10;9.15;;;6.30;86.40;;;;;;5005337;28;20891;-64
2022/12/01 03:31:11;;;;;;;19.17;8.82;;;6.40;86.20;;;;;;5005592;28;20049;-65
2022/12/01 03:33:45;;;;;;;17.88;8.60;;;6.40;85.90;;;;;;5001361;28;20045;-65
2022/12/01 03:36:17;;;;;;;17.80;8.80;;;6.40;86.00;;;;;;5005742;28;20073;-65
2022/12/01 03:38:48;;;;;;;16.17;7.80;;;6.30;86.00;;;;;;4994809;28;20061;-63
2022/12/01 03:41:19;;;;;;;17.98;9.02;;;6.30;86.00;;;;;;5002215;28;20117;-65
2022/12/01 03:43:55;;;;;;;13.60;7.97;;;6.30;86.20;;;;;;4998983;28;20037;-64
2022/12/01 03:46:29;;;;;;;14.32;7.50;;;6.30;86.00;;;;;;4991928;28;20045;-65
2022/12/01 03:48:57;;;;;;;15.82;8.65;;;6.30;86.10;;;;;;5006291;28;20080;-64
2022/12/01 03:51:32;;;;;;;15.35;7.82;;;6.40;85.90;;;;;;5004242;28;20141;-66
2022/12/01 03:54:07;;;;;;;16.45;8.80;;;6.30;85.50;;;;;;5005707;28;20216;-65
2022/12/01 03:56:38;;;;;;;16.08;7.88;;;6.30;85.60;;;;;;5003943;28;20056;-66
2022/12/01 03:59:08;;;;;;;15.50;8.15;;;6.30;85.40;;;;;;5007964;28;20049;-65
2022/12/01 04:01:36;;;;;;;16.48;8.00;;;6.30;85.30;;;;;;5001182;28;20056;-65
2022/12/01 04:04:06;;;;;;;15.95;8.25;;;6.30;85.10;;;;;;5004282;28;20124;-65
2022/12/01 04:06:36;;;;;;;16.15;7.63;;;6.30;85.10;;;;;;5004185;28;20046;-65
2022/12/01 04:09:03;;;;;;;14.50;7.25;;;6.30;85.00;;;;;;5005227;28;20124;-64
2022/12/01 04:14:14;;;;;;;15.85;7.93;;;6.30;85.00;;;;;;5005215;28;20628;-65
2022/12/01 04:16:41;;;;;;;15.57;8.15;;;6.20;84.60;;;;;;4998466;28;20045;-65
2022/12/01 04:19:10;;;;;;;18.58;9.07;;;6.20;84.80;;;;;;5002596;28;20046;-64
2022/12/01 04:21:37;;;;;;;17.92;8.63;;;6.20;84.30;;;;;;4991812;28;20056;-64
2022/12/01 04:24:04;;;;;;;17.65;8.65;;;6.10;84.10;;;;;;4995103;28;20169;-65
2022/12/01 04:26:33;;;;;;;17.05;8.52;;;6.10;84.20;;;;;;5001577;28;20420;-64
2022/12/01 04:29:02;;;;;;;15.60;8.55;;;6.10;84.00;;;;;;5005426;28;20054;-65
2022/12/01 04:31:29;;;;;;;17.50;9.10;;;6.10;84.30;;;;;;5001421;28;20515;-64
2022/12/01 04:33:58;;;;;;;20.52;10.30;;;6.10;83.80;;;;;;5003203;28;20077;-65
2022/12/01 04:36:29;;;;;;;17.90;9.07;;;6.10;83.10;;;;;;5005559;28;20038;-65
2022/12/01 04:38:56;;;;;;;16.75;8.93;;;6.00;83.40;;;;;;5008926;28;20129;-65
2022/12/01 04:41:23;;;;;;;17.38;9.07;;;6.00;83.70;;;;;;5001823;28;20054;-65
2022/12/01 04:43:52;;;;;;;16.17;8.95;;;6.10;83.40;;;;;;5008275;28;20077;-64
2022/12/01 04:46:19;;;;;;;17.52;9.07;;;6.00;83.40;;;;;;5000308;28;20120;-65
2022/12/01 04:48:45;;;;;;;22.02;9.98;;;6.00;83.10;;;;;;5005784;28;20037;-64
2022/12/01 04:51:13;;;;;;;19.98;9.95;;;6.00;83.40;;;;;;5000856;28;20042;-65
2022/12/01 04:53:41;;;;;;;19.67;9.02;;;6.00;83.40;;;;;;5006254;28;20046;-65
2022/12/01 04:56:08;;;;;;;19.65;9.40;;;6.00;83.20;;;;;;5002397;28;20124;-65
2022/12/01 04:58:37;;;;;;;17.83;9.23;;;6.00;83.40;;;;;;5002278;28;20045;-64
2022/12/01 05:01:07;;;;;;;18.65;8.77;;;6.00;83.40;;;;;;4995469;28;20058;-64
2022/12/01 05:03:37;;;;;;;19.92;10.73;;;6.00;83.50;;;;;;5000588;28;20074;-64
2022/12/01 05:06:04;;;;;;;18.60;9.80;;;6.00;83.50;;;;;;5002623;28;20046;-65
2022/12/01 05:08:31;;;;;;;17.83;9.25;;;6.00;83.70;;;;;;5001433;28;20058;-65
2022/12/01 05:11:00;;;;;;;14.95;8.40;;;6.00;83.70;;;;;;5000208;28;20048;-66
2022/12/01 05:13:28;;;;;;;16.77;8.82;;;6.00;83.70;;;;;;4997378;28;20503;-65
2022/12/01 05:16:04;;;;;;;20.08;10.25;;;6.00;83.40;;;;;;4995614;28;20046;-62
2022/12/01 05:18:31;;;;;;;15.80;8.73;;;6.00;83.30;;;;;;4996332;28;20042;-63
2022/12/01 05:20:57;;;;;;;18.60;9.70;;;5.90;83.20;;;;;;5002713;28;20161;-62
2022/12/01 05:23:24;;;;;;;19.45;8.98;;;6.00;83.40;;;;;;5006746;28;20760;-62
2022/12/01 05:25:51;;;;;;;18.35;9.63;;;6.00;83.30;;;;;;4998723;28;20522;-63
2022/12/01 05:28:21;;;;;;;21.65;9.90;;;6.00;83.20;;;;;;4985109;28;20662;-62
2022/12/01 05:30:49;;;;;;;17.50;10.10;;;6.00;82.80;;;;;;5002605;28;20057;-61
2022/12/01 05:33:16;;;;;;;17.27;9.25;;;5.90;83.30;;;;;;5004079;28;20045;-61
2022/12/01 05:35:44;;;;;;;16.88;9.35;;;5.80;83.00;;;;;;5006768;28;20041;-63
2022/12/01 05:38:11;;;;;;;19.75;10.00;;;5.80;83.10;;;;;;5001645;28;20192;-62
2022/12/01 05:40:38;;;;;;;16.58;9.30;;;5.80;83.40;;;;;;5009315;28;20411;-66
2022/12/01 05:43:05;;;;;;;15.55;9.27;;;5.80;83.20;;;;;;5008434;28;20111;-64
2022/12/01 05:45:34;;;;;;;18.35;9.65;;;5.80;82.60;;;;;;5003385;28;20038;-66
2022/12/01 05:48:02;;;;;;;17.10;8.85;;;5.70;83.20;;;;;;5008616;28;20497;-65
2022/12/01 05:50:30;;;;;;;17.10;9.18;;;5.80;83.10;;;;;;5002399;28;20046;-65
2022/12/01 05:52:57;;;;;;;16.33;8.60;;;5.80;83.30;;;;;;5003642;28;20041;-65
2022/12/01 05:55:24;;;;;;;17.33;8.90;;;5.70;83.40;;;;;;5008309;28;20049;-66
2022/12/01 05:57:51;;;;;;;18.73;9.38;;;5.70;83.20;;;;;;5005617;28;20041;-65
2022/12/01 06:00:19;;;;;;;20.80;9.52;;;5.70;83.20;;;;;;5001125;28;20042;-65
2022/12/01 06:02:47;;;;;;;18.27;9.38;;;5.70;83.30;;;;;;5003566;28;20137;-64
2022/12/01 06:05:14;;;;;;;19.02;9.05;;;5.70;83.20;;;;;;5007599;28;20132;-66
2022/12/01 06:07:41;;;;;;;16.27;9.23;;;5.70;83.20;;;;;;5005273;28;20125;-65
2022/12/01 06:10:09;;;;;;;20.25;9.02;;;5.70;83.30;;;;;;5006235;28;20050;-64
2022/12/01 06:12:37;;;;;;;18.50;9.30;;;5.70;83.40;;;;;;5000198;28;20080;-66
2022/12/01 06:15:05;;;;;;;17.83;8.95;;;5.70;83.40;;;;;;4987232;28;20044;-65
2022/12/01 06:17:32;;;;;;;18.65;8.95;;;5.80;83.60;;;;;;4986410;28;20043;-65
2022/12/01 06:20:01;;;;;;;17.75;8.77;;;5.80;83.40;;;;;;4973769;28;20042;-64
2022/12/01 06:22:28;;;;;;;15.57;8.35;;;5.80;83.30;;;;;;4990243;28;20054;-65
2022/12/01 06:24:55;;;;;;;14.70;8.27;;;5.80;83.20;;;;;;4986734;28;20378;-65
2022/12/01 06:27:22;;;;;;;15.98;8.95;;;5.70;83.10;;;;;;4981279;28;20387;-66
2022/12/01 06:29:49;;;;;;;17.42;9.40;;;5.70;83.10;;;;;;4987257;28;20050;-66
2022/12/01 06:32:16;;;;;;;19.15;9.18;;;5.70;83.30;;;;;;4983941;28;20504;-63
2022/12/01 06:34:43;;;;;;;17.58;9.05;;;5.70;83.10;;;;;;4976985;28;20049;-62
2022/12/01 06:37:14;;;;;;;17.40;8.75;;;5.70;83.30;;;;;;4982955;28;20053;-62
2022/12/01 06:39:41;;;;;;;17.80;8.95;;;5.70;83.40;;;;;;4987747;28;20144;-62
2022/12/01 06:42:08;;;;;;;20.17;9.77;;;5.70;83.30;;;;;;4977210;28;20085;-62
2022/12/01 06:44:35;;;;;;;16.80;8.50;;;5.70;83.40;;;;;;4985821;28;20106;-61
2022/12/01 06:47:02;;;;;;;16.27;9.88;;;5.70;83.50;;;;;;4977358;28;20046;-62
2022/12/01 06:49:29;;;;;;;15.60;8.50;;;5.70;83.30;;;;;;4986645;28;20058;-61
2022/12/01 06:51:56;;;;;;;18.58;9.80;;;5.70;83.30;;;;;;4978648;28;20054;-61
2022/12/01 06:54:24;;;;;;;15.45;8.70;;;5.70;83.20;;;;;;4984801;28;20046;-63
2022/12/01 06:56:51;;;;;;;17.92;8.82;;;5.70;82.80;;;;;;4982827;28;20058;-63
2022/12/01 06:59:19;;;;;;;16.98;8.70;;;5.70;82.90;;;;;;4981710;28;20043;-62
2022/12/01 07:01:45;;;;;;;18.65;9.02;;;5.70;82.20;;;;;;4983863;28;20042;-61
2022/12/01 07:04:12;;;;;;;17.20;8.65;;;5.70;82.60;;;;;;4986201;28;20587;-62
2022/12/01 07:06:39;;;;;;;15.68;8.48;;;5.60;81.80;;;;;;4977618;28;20046;-62
2022/12/01 07:09:06;;;;;;;19.92;9.65;;;5.60;82.10;;;;;;4980248;28;20146;-63
2022/12/01 07:11:35;;;;;;;17.08;8.38;;;5.60;82.40;;;;;;4985389;28;20170;-62
2022/12/01 07:14:03;;;;;;;15.40;8.48;;;5.70;82.50;;;;;;5006692;28;20072;-62
2022/12/01 07:16:30;;;;;;;14.13;7.97;;;5.70;82.30;;;;;;5001601;28;20112;-61
2022/12/01 07:18:58;;;;;;;15.98;9.30;;;5.70;82.30;;;;;;5008431;28;20049;-62
2022/12/01 07:21:25;;;;;;;17.17;8.90;;;5.70;82.50;;;;;;5007692;28;20061;-62
2022/12/01 07:23:52;;;;;;;15.27;8.30;;;5.70;82.60;;;;;;5004191;28;20050;-61
2022/12/01 07:26:19;;;;;;;16.98;8.10;;;5.70;82.80;;;;;;5005653;28;20489;-61
2022/12/01 07:28:47;;;;;;;16.98;8.77;;;5.70;83.00;;;;;;5003652;28;20506;-63
2022/12/01 07:31:15;;;;;;;17.73;9.18;;;5.70;83.00;;;;;;5004351;28;20052;-61
2022/12/01 07:33:43;;;;;;;16.60;8.50;;;5.70;83.00;;;;;;5005447;28;20049;-63
2022/12/01 07:36:11;;;;;;;17.90;8.93;;;5.60;82.80;;;;;;5003333;28;20486;-63
2022/12/01 07:38:38;;;;;;;15.75;8.43;;;5.60;83.00;;;;;;5003672;28;20055;-63
2022/12/01 07:41:08;;;;;;;15.15;8.25;;;5.60;82.70;;;;;;5003097;28;20129;-62
2022/12/01 07:43:35;;;;;;;15.18;8.50;;;5.70;82.90;;;;;;5004652;28;20047;-61
2022/12/01 07:46:09;;;;;;;16.02;7.63;;;5.60;82.40;;;;;;5006113;28;20485;-63
2022/12/01 07:48:37;;;;;;;16.02;8.85;;;5.70;82.50;;;;;;5007248;28;20069;-62
2022/12/01 07:51:04;;;;;;;15.68;8.75;;;5.60;82.40;;;;;;5000236;28;20050;-64
2022/12/01 07:53:31;;;;;;;17.67;8.85;;;5.70;82.60;;;;;;4999038;28;20413;-63
2022/12/01 07:55:59;;;;;;;16.42;8.02;;;5.70;82.50;;;;;;5002529;28;20045;-62
2022/12/01 07:58:26;;;;;;;17.50;9.18;;;5.70;82.50;;;;;;4999141;28;20053;-63
2022/12/01 08:00:53;;;;;;;14.10;8.25;;;5.70;82.50;;;;;;4995689;28;20552;-63
2022/12/01 08:03:22;;;;;;;14.38;7.70;;;5.70;82.50;;;;;;5005447;28;20488;-62
2022/12/01 08:05:57;;;;;;;15.65;8.43;;;5.70;82.40;;;;;;5003711;28;20056;-63
2022/12/01 08:08:24;;;;;;;17.65;9.02;;;5.70;82.50;;;;;;5004320;28;20046;-62
2022/12/01 08:10:51;;;;;;;14.13;7.68;;;5.70;82.50;;;;;;4999401;28;20054;-62
2022/12/01 08:13:19;;;;;;;15.73;8.10;;;5.70;82.60;;;;;;5001057;28;20082;-62
2022/12/01 08:15:47;;;;;;;15.38;8.43;;;5.70;82.60;;;;;;4998984;28;20050;-61
2022/12/01 08:18:14;;;;;;;17.42;9.98;;;5.70;82.80;;;;;;4982414;28;20488;-61
2022/12/01 08:20:43;;;;;;;17.15;8.43;;;5.70;83.00;;;;;;4997628;28;20050;-63
2022/12/01 08:23:11;;;;;;;16.33;8.40;;;5.70;82.80;;;;;;5003731;28;20050;-62
2022/12/01 08:25:38;;;;;;;15.02;8.40;;;5.70;82.60;;;;;;4993900;28;20049;-61
2022/12/01 08:28:05;;;;;;;14.82;8.35;;;5.70;82.60;;;;;;5000985;28;20042;-60
2022/12/01 08:30:33;;;;;;;15.75;8.55;;;5.70;82.70;;;;;;4999575;28;20072;-62
2022/12/01 08:33:00;;;;;;;17.15;8.40;;;5.80;82.70;;;;;;4997706;28;21347;-62
2022/12/01 08:35:36;;;;;;;17.83;9.48;;;5.80;82.70;;;;;;5001862;28;20377;-61
2022/12/01 08:38:04;;;;;;;17.42;9.43;;;5.90;82.70;;;;;;4998906;28;20065;-62
2022/12/01 08:40:33;;;;;;;15.98;8.60;;;5.90;82.40;;;;;;5001817;28;20408;-62
2022/12/01 08:43:00;;;;;;;16.15;8.38;;;5.80;82.40;;;;;;5003773;28;20169;-62
2022/12/01 08:45:27;;;;;;;15.73;8.30;;;5.90;82.50;;;;;;5002373;28;20046;-62
2022/12/01 08:47:57;;;;;;;17.02;8.77;;;5.90;82.50;;;;;;4998595;28;20057;-61
2022/12/01 08:50:24;;;;;;;18.50;9.30;;;5.80;82.40;;;;;;4999674;28;20041;-62
2022/12/01 08:52:51;;;;;;;17.00;9.32;;;5.80;82.40;;;;;;4997622;28;20062;-62
2022/12/01 08:55:20;;;;;;;18.52;10.13;;;5.80;82.20;;;;;;5006960;28;20073;-62
2022/12/01 08:57:47;;;;;;;19.55;9.45;;;5.80;81.80;;;;;;5000498;28;20052;-62
2022/12/01 09:00:15;;;;;;;17.90;9.23;;;5.80;82.10;;;;;;5002650;28;20056;-66
2022/12/01 09:02:46;;;;;;;18.67;9.85;;;5.80;81.70;;;;;;5004696;28;20042;-64
2022/12/01 09:05:12;;;;;;;18.65;9.15;;;5.90;81.70;;;;;;5010772;28;20042;-64
2022/12/01 09:08:30;;;;;;;16.63;8.23;;;6.00;81.80;;;;;;5003769;28;20066;-66
2022/12/01 09:10:31;;;;;;;17.77;8.55;;;6.00;81.50;;;;;;5000362;28;20459;-64
2022/12/01 09:12:58;;;;;;;16.98;8.88;;;6.00;81.70;;;;;;5010295;28;20065;-65
2022/12/01 09:15:25;;;;;;;17.83;8.95;;;6.00;81.90;;;;;;5001192;28;20039;-65
2022/12/01 09:17:52;;;;;;;17.42;8.93;;;6.10;81.80;;;;;;5006918;28;20053;-66
2022/12/01 09:20:20;;;;;;;14.65;8.30;;;6.10;82.00;;;;;;5005831;28;20500;-65
2022/12/01 09:22:47;;;;;;;16.67;9.18;;;6.10;81.80;;;;;;5011916;28;20062;-65
2022/12/01 09:25:14;;;;;;;15.77;8.75;;;6.20;81.60;;;;;;5008361;28;20037;-65
2022/12/01 09:27:42;;;;;;;16.27;8.77;;;6.20;81.40;;;;;;5011778;28;20042;-65
2022/12/01 09:30:10;;;;;;;18.77;9.40;;;6.20;81.70;;;;;;5004270;28;20145;-65
2022/12/01 09:32:37;;;;;;;20.00;9.50;;;6.20;81.40;;;;;;5007238;28;20424;-66
2022/12/01 09:35:05;;;;;;;18.20;9.38;;;6.20;81.10;;;;;;5007753;28;20130;-65
2022/12/01 09:37:32;;;;;;;18.65;9.48;;;6.20;81.10;;;;;;5008569;28;20093;-66
2022/12/01 09:39:59;;;;;;;17.38;8.63;;;6.20;81.10;;;;;;4986096;28;20409;-66
2022/12/01 09:42:26;;;;;;;18.52;8.68;;;6.20;81.20;;;;;;5006716;28;20046;-65
2022/12/01 09:44:57;;;;;;;18.50;8.93;;;6.20;81.00;;;;;;5011361;28;20445;-67
2022/12/01 09:47:29;;;;;;;18.77;9.45;;;6.20;81.20;;;;;;5002181;28;20513;-65
2022/12/01 09:49:59;;;;;;;15.65;8.55;;;6.30;80.90;;;;;;5002911;28;22105;-66
2022/12/01 09:52:28;;;;;;;17.45;8.38;;;6.30;80.70;;;;;;5002480;28;20046;-65
2022/12/01 09:54:58;;;;;;;18.27;8.57;;;6.30;81.10;;;;;;4999074;28;20121;-66
2022/12/01 09:57:30;;;;;;;17.27;9.05;;;6.40;80.70;;;;;;4994350;28;20434;-65
2022/12/01 10:00:01;;;;;;;15.90;8.40;;;6.40;80.60;;;;;;5000911;28;20101;-65
2022/12/01 10:02:41;;;;;;;17.15;9.10;;;6.40;80.50;;;;;;4997747;28;20058;-65
2022/12/01 10:05:14;;;;;;;15.07;8.70;;;6.40;80.30;;;;;;5005442;28;20049;-64
2022/12/01 10:07:46;;;;;;;19.40;10.02;;;6.40;80.70;;;;;;5005633;28;20042;-66
2022/12/01 10:10:17;;;;;;;18.52;10.07;;;6.40;80.50;;;;;;5001316;28;20034;-65
2022/12/01 10:12:46;;;;;;;16.38;8.30;;;6.40;80.30;;;;;;5008923;28;20053;-65
2022/12/01 10:15:27;;;;;;;18.15;8.75;;;6.40;80.80;;;;;;5005282;28;20129;-64
2022/12/01 10:18:03;;;;;;;17.65;8.88;;;6.40;80.30;;;;;;5001782;28;20519;-65
2022/12/01 10:20:36;;;;;;;16.33;8.13;;;6.50;80.40;;;;;;5003548;28;20161;-65
2022/12/01 10:23:20;;;;;;;15.38;8.07;;;6.50;80.60;;;;;;5005266;28;20539;-66
2022/12/01 10:25:55;;;;;;;18.05;8.57;;;6.40;80.10;;;;;;5005208;28;20121;-64
2022/12/01 10:28:50;;;;;;;18.65;8.65;;;6.50;80.40;;;;;;5000097;28;20052;-66
2022/12/01 10:31:27;;;;;;;17.20;8.20;;;6.50;80.00;;;;;;5001903;28;20420;-66
2022/12/01 10:34:00;;;;;;;16.95;8.57;;;6.50;80.30;;;;;;5005838;28;20049;-64
2022/12/01 10:36:30;;;;;;;16.60;8.80;;;6.50;80.30;;;;;;5004991;28;20070;-66
2022/12/01 10:38:57;;;;;;;15.35;7.47;;;6.60;80.30;;;;;;5006761;28;20092;-65
2022/12/01 10:41:27;;;;;;;16.25;8.73;;;6.60;79.90;;;;;;5002490;28;20049;-66
2022/12/01 10:43:59;;;;;;;17.20;9.95;;;6.60;80.40;;;;;;5004306;28;20542;-64
2022/12/01 10:46:33;;;;;;;17.55;10.10;;;6.70;80.20;;;;;;5004204;28;20042;-66
2022/12/01 10:49:07;;;;;;;18.23;9.63;;;6.60;80.20;;;;;;5006438;28;20050;-66
2022/12/01 10:51:47;;;;;;;20.90;10.93;;;6.60;79.60;;;;;;5000459;28;20050;-66
2022/12/01 10:54:14;;;;;;;20.17;10.75;;;6.60;79.50;;;;;;4998547;28;20041;-65
2022/12/01 10:56:42;;;;;;;20.67;9.10;;;6.60;79.70;;;;;;5003385;28;20050;-66
2022/12/01 10:59:28;;;;;;;17.67;10.07;;;6.70;79.70;;;;;;5009905;28;20050;-65
2022/12/01 11:01:58;;;;;;;17.83;8.95;;;6.70;80.10;;;;;;4999531;28;20045;-67
2022/12/01 11:04:43;;;;;;;18.10;8.50;;;6.70;79.60;;;;;;5007842;28;20042;-66
2022/12/01 11:07:20;;;;;;;16.50;8.32;;;6.70;79.60;;;;;;5000643;28;20050;-65
2022/12/01 11:09:56;;;;;;;16.60;8.82;;;6.60;79.90;;;;;;5002319;28;21072;-66
2022/12/01 11:12:24;;;;;;;15.20;7.93;;;6.70;79.80;;;;;;4999607;28;20128;-65
2022/12/01 11:14:52;;;;;;;16.92;8.48;;;6.70;79.20;;;;;;5004640;28;20058;-65
2022/12/01 11:17:30;;;;;;;16.73;8.60;;;6.70;79.10;;;;;;5008446;28;20046;-65
2022/12/01 11:19:58;;;;;;;18.10;8.82;;;6.70;79.50;;;;;;5000776;28;20052;-66
2022/12/01 11:22:28;;;;;;;18.65;9.40;;;6.70;78.90;;;;;;4999024;28;20523;-65
2022/12/01 11:25:01;;;;;;;17.20;8.52;;;6.70;79.60;;;;;;5004013;28;20042;-64
2022/12/01 11:27:32;;;;;;;18.27;8.80;;;6.70;79.90;;;;;;5003997;28;20124;-66
2022/12/01 11:30:03;;;;;;;17.15;8.93;;;6.70;79.50;;;;;;4996189;28;20058;-66
2022/12/01 11:32:35;;;;;;;16.23;9.05;;;6.70;79.30;;;;;;5000283;28;20073;-66
2022/12/01 11:35:04;;;;;;;18.75;9.32;;;6.70;79.40;;;;;;4999441;28;20054;-67
2022/12/01 11:37:35;;;;;;;18.38;9.20;;;6.70;79.10;;;;;;4993189;28;20128;-65
2022/12/01 11:40:09;;;;;;;18.02;9.52;;;6.80;78.90;;;;;;5003269;28;20409;-66
2022/12/01 11:42:36;;;;;;;18.55;9.40;;;6.80;79.50;;;;;;5003983;28;20088;-66
2022/12/01 11:45:09;;;;;;;18.02;10.05;;;6.80;79.30;;;;;;4996385;28;20046;-66
2022/12/01 11:47:58;;;;;;;17.63;9.32;;;6.80;79.40;;;;;;5005804;28;20117;-66
2022/12/01 11:50:28;;;;;;;17.30;8.73;;;6.80;79.00;;;;;;4999038;28;20052;-68
2022/12/01 11:52:55;;;;;;;20.05;10.00;;;6.70;79.50;;;;;;5007389;28;20129;-66
2022/12/01 11:55:24;;;;;;;18.50;9.68;;;6.70;79.30;;;;;;4999946;28;20044;-65
2022/12/01 11:57:55;;;;;;;18.60;9.68;;;6.70;79.20;;;;;;5001691;28;20048;-67
2022/12/01 12:00:24;;;;;;;15.90;9.30;;;6.70;78.90;;;;;;4993249;28;20054;-65
2022/12/01 12:03:07;;;;;;;18.58;9.13;;;6.80;79.00;;;;;;5000185;28;20099;-66
2022/12/01 12:05:49;;;;;;;17.00;8.68;;;6.80;79.40;;;;;;5004459;28;20038;-65
2022/12/01 12:08:29;;;;;;;19.15;9.15;;;6.70;79.80;;;;;;4996132;28;20065;-66
2022/12/01 12:11:07;;;;;;;16.40;9.95;;;6.70;79.20;;;;;;5003181;28;20073;-67
2022/12/01 12:14:09;;;;;;;18.70;10.10;;;6.70;79.50;;;;;;4987253;28;20137;-66
2022/12/01 12:16:51;;;;;;;18.38;9.48;;;6.70;79.40;;;;;;4978638;28;20140;-67
2022/12/01 12:19:38;;;;;;;18.88;9.50;;;6.60;79.40;;;;;;4986575;28;20129;-67
2022/12/01 12:22:21;;;;;;;18.85;9.77;;;6.70;79.20;;;;;;4976504;28;20133;-67
2022/12/01 12:25:00;;;;;;;22.67;11.02;;;6.60;79.80;;;;;;4958470;28;20397;-66
2022/12/01 12:27:39;;;;;;;24.88;13.73;;;6.60;79.60;;;;;;4985436;28;20078;-67
2022/12/01 12:30:20;;;;;;;27.90;15.13;;;6.70;79.60;;;;;;4986081;28;20042;-68
2022/12/01 12:33:22;;;;;;;27.90;17.17;;;6.70;79.60;;;;;;4981626;28;20133;-65
2022/12/01 12:35:58;;;;;;;26.10;15.07;;;6.70;79.90;;;;;;4987228;28;20042;-67
2022/12/01 12:38:46;;;;;;;24.65;14.55;;;6.70;79.50;;;;;;4985679;28;20097;-68
2022/12/01 12:41:23;;;;;;;22.30;12.05;;;6.70;79.80;;;;;;4982452;28;20038;-66
2022/12/01 12:43:59;;;;;;;24.50;12.98;;;6.80;79.70;;;;;;4985204;28;20043;-66
2022/12/01 12:46:33;;;;;;;22.80;11.93;;;6.90;79.60;;;;;;4984451;28;20042;-67
2022/12/01 12:49:26;;;;;;;21.00;11.75;;;6.90;79.60;;;;;;4980394;28;20053;-65
2022/12/01 12:52:00;;;;;;;21.48;11.52;;;6.80;79.40;;;;;;4986077;28;20436;-67
2022/12/01 12:54:32;;;;;;;21.58;11.25;;;6.90;79.80;;;;;;4983304;28;20057;-65
2022/12/01 12:57:04;;;;;;;24.20;11.93;;;6.80;79.20;;;;;;4983496;28;20053;-67
2022/12/01 12:59:39;;;;;;;22.40;11.40;;;6.90;79.50;;;;;;4985323;28;20127;-67
2022/12/01 13:02:13;;;;;;;26.10;12.25;;;6.80;79.20;;;;;;4977851;28;20125;-66
2022/12/01 13:04:45;;;;;;;23.33;11.50;;;6.80;79.20;;;;;;4988445;28;20058;-66